Leopoldsburg, Belgium
Current Conditions -  °F | °C
As of 5:55 PM on Saturday 25 Oct 2014 (Local Time) from EBBL Reporting Station
Broken Clouds Broken Clouds  
Wind Chill: 55°   Ceiling: 2800
Heat Index: 55°   Visibility: 6mi
Dew Point: 54°   Wind: 7mph
Humidity: 94%   Direction: 250°WSW
Pressure: 30.12"   Gusts: NA
Location:  51.12°N, 5.25°E
Report Text: EBBL 251555Z AUTO 25006KT 9000 FEW012/// SCT019/// BKN028/// 13/12 Q1020 WHT
Loading
Personal Weather Stations






























Interactive Weather Map
Tropical Storm Tracking
New forecast layout! Learn more

10-Day Weather Forecast

Advertisements
Track Severe Weather on mobile